Time;durP1;ratioP1;P1;durP2;ratioP2;P2;SDS_P1;SDS_P2;PMS_P1;PMS_P2;Temp;Humidity;BMP_temperature;BMP_pressure;BME280_temperature;BME280_humidity;BME280_pressure;Samples;Min_cycle;Max_cycle;Signal;HPM_P1;HPM_P2
2022/07/03 00:01:58;;;;;;;14.93;5.70;;;;;;;15.32;88.30;101546.09;5065455;28;20025;-81
2022/07/03 00:04:24;;;;;;;14.38;5.63;;;;;;;15.25;88.08;101556.56;5069229;28;20020;-81
2022/07/03 00:06:49;;;;;;;16.88;6.47;;;;;;;15.21;88.25;101557.78;5065757;28;20157;-81
2022/07/03 00:09:15;;;;;;;18.65;6.07;;;;;;;15.16;88.17;101552.75;5065811;28;20039;-81
2022/07/03 00:11:40;;;;;;;14.35;5.30;;;;;;;15.17;87.77;101564.47;5063313;28;20555;-81
2022/07/03 00:14:06;;;;;;;12.70;5.18;;;;;;;15.18;88.31;101568.88;5064554;28;20032;-81
2022/07/03 00:16:31;;;;;;;16.63;6.25;;;;;;;15.23;88.01;101573.91;5057640;28;20024;-81
2022/07/03 00:18:57;;;;;;;15.30;6.28;;;;;;;15.26;88.01;101582.66;5066574;28;20037;-81
2022/07/03 00:21:33;;;;;;;13.70;5.25;;;;;;;15.29;87.28;101592.41;5067129;28;20040;-81
2022/07/03 00:24:07;;;;;;;15.48;6.35;;;;;;;15.31;86.72;101583.13;5073709;28;20039;-81
2022/07/03 00:26:36;;;;;;;17.02;6.72;;;;;;;15.36;86.65;101589.06;5080625;28;20035;-82
2022/07/03 00:29:03;;;;;;;17.90;7.20;;;;;;;15.41;86.33;101582.41;5066341;28;20047;-82
2022/07/03 00:31:30;;;;;;;18.08;7.35;;;;;;;15.42;86.23;101592.22;5066655;28;20124;-81
2022/07/03 00:33:58;;;;;;;15.70;6.53;;;;;;;15.42;86.38;101594.94;5062553;28;20105;-81
2022/07/03 00:36:26;;;;;;;15.25;6.75;;;;;;;15.41;86.02;101590.53;5060598;28;20475;-81
2022/07/03 00:38:52;;;;;;;17.73;7.72;;;;;;;15.38;85.98;101589.78;5064934;28;20078;-81
2022/07/03 00:41:26;;;;;;;19.40;8.00;;;;;;;15.38;85.50;101587.06;5066904;28;20338;-81
2022/07/03 00:43:52;;;;;;;17.23;7.55;;;;;;;15.32;86.10;101589.44;5065654;28;20472;-81
2022/07/03 00:46:20;;;;;;;21.60;7.55;;;;;;;15.24;86.20;101587.34;5082266;28;20070;-81
2022/07/03 00:48:48;;;;;;;16.30;6.78;;;;;;;15.24;85.92;101584.63;5080831;28;20024;-81
2022/07/03 00:51:17;;;;;;;18.58;8.10;;;;;;;15.16;85.85;101589.81;5066923;28;20033;-81
2022/07/03 00:53:45;;;;;;;19.10;7.90;;;;;;;15.12;86.01;101589.19;5068472;28;20439;-81
2022/07/03 00:56:13;;;;;;;18.92;8.25;;;;;;;15.04;86.12;101580.84;5062813;28;20121;-81
2022/07/03 00:58:40;;;;;;;17.38;7.35;;;;;;;15.00;86.58;101587.50;5076069;28;20032;-81
2022/07/03 01:01:06;;;;;;;17.27;8.02;;;;;;;14.97;86.38;101587.75;5082981;28;20052;-80
2022/07/03 01:03:35;;;;;;;17.20;7.13;;;;;;;14.93;86.49;101581.69;5084191;28;20390;-80
2022/07/03 01:06:12;;;;;;;18.90;7.83;;;;;;;14.91;86.53;101580.97;5064026;28;20086;-80
2022/07/03 01:08:45;;;;;;;19.73;8.00;;;;;;;14.82;86.57;101585.28;5073290;28;20028;-80
2022/07/03 01:11:25;;;;;;;18.40;8.13;;;;;;;14.81;86.64;101577.28;5067448;28;20457;-81
2022/07/03 01:13:59;;;;;;;16.23;7.20;;;;;;;14.78;86.60;101582.94;5060204;28;20020;-81
2022/07/03 01:16:37;;;;;;;17.75;7.90;;;;;;;14.75;86.50;101583.19;5070289;28;20033;-81
2022/07/03 01:19:42;;;;;;;17.42;7.18;;;;;;;14.77;85.75;101586.63;5069867;28;20048;-81
2022/07/03 01:22:28;;;;;;;18.63;7.75;;;;;;;14.70;86.58;101590.78;5010936;28;20041;-80
2022/07/03 01:25:03;;;;;;;18.98;8.45;;;;;;;14.65;86.64;101592.00;5015345;28;20048;-80
2022/07/03 01:27:42;;;;;;;17.85;7.90;;;;;;;14.62;86.74;101586.84;5014710;28;20045;-81
2022/07/03 01:30:10;;;;;;;18.98;8.27;;;;;;;14.60;86.58;101586.06;5025039;28;20147;-81
2022/07/03 01:32:41;;;;;;;20.48;9.00;;;;;;;14.58;86.86;101587.19;5000923;28;20034;-80
2022/07/03 01:35:08;;;;;;;23.13;8.38;;;;;;;14.56;87.17;101576.47;5012517;28;20426;-81
2022/07/03 01:37:35;;;;;;;16.83;7.85;;;;;;;14.54;87.58;101578.47;5009993;28;20500;-80
2022/07/03 01:40:03;;;;;;;19.23;8.85;;;;;;;14.53;86.59;101584.00;5004888;28;20462;-80
2022/07/03 01:42:32;;;;;;;20.98;8.15;;;;;;;14.48;86.72;101576.22;5023227;28;20030;-81
2022/07/03 01:44:59;;;;;;;20.23;8.45;;;;;;;14.49;86.74;101580.63;5019083;28;20044;-81
2022/07/03 01:47:25;;;;;;;18.27;8.55;;;;;;;14.44;86.56;101577.44;5011906;28;20032;-81
2022/07/03 01:49:53;;;;;;;17.80;8.30;;;;;;;14.42;86.99;101590.22;5018966;28;20381;-81
2022/07/03 01:52:20;;;;;;;16.98;7.68;;;;;;;14.39;86.88;101576.94;5035117;28;20387;-81
2022/07/03 01:54:46;;;;;;;18.95;7.78;;;;;;;14.38;87.05;101591.44;5068582;28;20039;-81
2022/07/03 01:57:11;;;;;;;20.70;8.40;;;;;;;14.32;87.21;101590.94;5072383;28;20256;-81
2022/07/03 01:59:36;;;;;;;18.58;7.75;;;;;;;14.30;87.15;101587.47;5072849;28;20120;-81
2022/07/03 02:02:19;;;;;;;18.13;7.45;;;;;;;14.26;86.82;101575.19;5065748;28;20052;-81
2022/07/03 02:04:59;;;;;;;19.13;8.07;;;;;;;14.26;86.68;101579.72;5087472;28;20115;-81
2022/07/03 02:07:37;;;;;;;19.27;8.05;;;;;;;14.24;87.26;101570.88;5070234;28;20016;-81
2022/07/03 02:10:06;;;;;;;18.63;7.63;;;;;;;14.22;86.77;101573.72;5064085;28;20036;-81
2022/07/03 02:12:57;;;;;;;19.42;7.88;;;;;;;14.23;86.33;101570.03;5071305;28;20046;-81
2022/07/03 02:15:43;;;;;;;17.70;7.65;;;;;;;14.21;86.47;101569.28;5068390;28;20103;-81
2022/07/03 02:18:24;;;;;;;20.40;7.47;;;;;;;14.14;86.96;101565.31;5079222;28;20016;-81
2022/07/03 02:21:02;;;;;;;17.23;7.50;;;;;;;14.14;87.39;101563.50;5083585;28;20040;-81
2022/07/03 02:23:31;;;;;;;20.42;8.15;;;;;;;14.11;87.31;101560.16;5067305;28;20443;-81
2022/07/03 02:26:01;;;;;;;19.70;8.13;;;;;;;14.08;87.47;101569.34;5077863;28;20031;-81
2022/07/03 02:28:34;;;;;;;19.45;7.72;;;;;;;14.03;87.81;101560.75;5069205;28;20054;-81
2022/07/03 02:31:02;;;;;;;18.40;7.57;;;;;;;14.05;87.45;101568.72;5067185;28;20028;-81
2022/07/03 02:33:30;;;;;;;19.52;7.28;;;;;;;13.99;87.44;101573.63;5060705;28;20053;-81
2022/07/03 02:35:57;;;;;;;18.83;7.80;;;;;;;13.96;87.47;101571.16;5068651;28;20036;-81
2022/07/03 02:38:24;;;;;;;18.05;7.75;;;;;;;13.93;87.37;101568.69;5078996;28;20031;-81
2022/07/03 02:40:58;;;;;;;16.90;6.30;;;;;;;13.90;87.50;101563.50;5073384;28;20443;-81
2022/07/03 02:43:36;;;;;;;21.02;8.40;;;;;;;13.89;87.32;101569.03;5062951;28;20040;-81
2022/07/03 02:49:11;;;;;;;18.15;7.95;;;;;;;13.80;88.20;101565.19;5066495;28;20135;-81
2022/07/03 02:51:40;;;;;;;17.45;7.00;;;;;;;13.77;87.84;101560.03;5081954;28;20020;-81
2022/07/03 02:54:13;;;;;;;17.35;7.40;;;;;;;13.76;88.29;101563.69;5075499;28;20491;-81
2022/07/03 02:57:04;;;;;;;19.00;7.97;;;;;;;13.74;88.08;101553.00;5065798;28;20467;-81
2022/07/03 02:59:52;;;;;;;18.35;8.63;;;;;;;13.81;87.88;101556.97;5063255;28;20033;-81
2022/07/03 03:02:44;;;;;;;19.45;7.80;;;;;;;13.85;87.48;101557.63;5066978;28;20039;-81
2022/07/03 03:05:17;;;;;;;17.65;7.50;;;;;;;13.79;87.96;101563.47;5070307;28;20530;-81
2022/07/03 03:08:07;;;;;;;19.65;8.85;;;;;;;13.75;87.87;101573.66;5069208;28;20028;-81
2022/07/03 03:10:39;;;;;;;18.02;7.72;;;;;;;13.68;87.81;101574.22;5062441;28;20124;-81
2022/07/03 03:13:07;;;;;;;17.52;7.15;;;;;;;13.64;88.16;101573.59;5068670;28;20170;-81
2022/07/03 03:15:34;;;;;;;19.00;8.15;;;;;;;13.64;88.38;101576.28;5064737;28;20017;-81
2022/07/03 03:18:05;;;;;;;20.67;8.15;;;;;;;13.64;88.44;101574.44;5066173;28;20033;-81
2022/07/03 03:20:32;;;;;;;20.52;8.43;;;;;;;13.62;88.41;101571.00;5070105;28;20055;-81
2022/07/03 03:23:15;;;;;;;19.83;7.13;;;;;;;13.63;88.73;101580.84;5067356;28;20025;-81
2022/07/03 03:25:41;;;;;;;19.00;8.13;;;;;;;13.61;88.90;101577.38;5070712;28;20048;-81
2022/07/03 03:28:06;;;;;;;16.92;7.00;;;;;;;13.60;88.57;101581.06;5076020;28;20066;-81
2022/07/03 03:30:32;;;;;;;17.73;7.35;;;;;;;13.57;88.13;101580.41;5071337;28;20829;-81
2022/07/03 03:32:57;;;;;;;17.98;7.47;;;;;;;13.58;88.53;101579.44;5061558;28;20163;-81
2022/07/03 03:35:23;;;;;;;21.33;8.15;;;;;;;13.58;88.69;101588.41;5073354;28;20517;-81
2022/07/03 03:37:49;;;;;;;17.55;7.32;;;;;;;13.58;88.41;101588.41;5074620;28;20375;-81
2022/07/03 03:40:18;;;;;;;19.58;7.55;;;;;;;13.60;88.48;101585.59;5066932;28;20028;-81
2022/07/03 03:42:43;;;;;;;18.60;7.10;;;;;;;13.66;87.95;101586.97;5068785;28;20085;-81
2022/07/03 03:45:09;;;;;;;17.83;7.75;;;;;;;13.64;88.04;101589.78;5068172;28;20628;-81
2022/07/03 03:47:34;;;;;;;15.20;6.90;;;;;;;13.68;88.23;101587.75;5064886;28;20666;-81
2022/07/03 03:50:01;;;;;;;16.55;6.95;;;;;;;13.68;88.23;101574.22;5064197;28;20476;-81
2022/07/03 03:52:28;;;;;;;18.25;7.53;;;;;;;13.70;88.38;101580.38;5069504;28;20124;-81
2022/07/03 03:54:53;;;;;;;18.40;6.88;;;;;;;13.74;88.18;101582.72;5069188;28;20476;-81
2022/07/03 03:57:21;;;;;;;16.95;6.65;;;;;;;13.76;87.85;101579.91;5069262;28;20029;-81
2022/07/03 03:59:47;;;;;;;15.88;6.15;;;;;;;13.75;87.96;101584.47;5073796;28;20031;-81
2022/07/03 04:02:13;;;;;;;18.08;7.63;;;;;;;13.75;88.27;101584.47;5073027;28;20032;-80
2022/07/03 04:04:38;;;;;;;17.48;7.03;;;;;;;13.80;88.22;101584.94;5076109;28;20036;-81
2022/07/03 04:07:04;;;;;;;18.75;7.38;;;;;;;13.82;88.03;101584.84;5070560;28;20250;-81
2022/07/03 04:09:30;;;;;;;18.65;7.30;;;;;;;13.84;88.17;101580.19;5071065;28;20039;-81
2022/07/03 04:11:55;;;;;;;16.95;6.40;;;;;;;13.84;87.91;101585.59;5070463;28;20037;-81
2022/07/03 04:14:20;;;;;;;17.02;7.38;;;;;;;13.86;87.66;101580.94;5077585;28;20020;-81
2022/07/03 04:16:47;;;;;;;17.77;6.95;;;;;;;13.88;87.68;101587.09;5071751;28;20504;-81
2022/07/03 04:19:12;;;;;;;18.15;6.82;;;;;;;13.92;87.69;101590.41;5069545;28;20110;-81
2022/07/03 04:21:37;;;;;;;17.60;6.90;;;;;;;13.92;87.67;101593.97;5083844;28;20031;-81
2022/07/03 04:24:03;;;;;;;17.73;7.53;;;;;;;13.94;87.33;101592.03;5069000;28;20028;-81
2022/07/03 04:26:28;;;;;;;18.20;7.22;;;;;;;13.93;86.88;101584.03;5072839;28;20616;-81
2022/07/03 04:28:54;;;;;;;20.08;7.80;;;;;;;13.94;87.33;101593.88;5067846;28;20024;-82
2022/07/03 04:31:19;;;;;;;18.05;7.75;;;;;;;13.95;87.76;101590.19;5071590;28;20029;-81
2022/07/03 04:33:44;;;;;;;17.48;7.45;;;;;;;13.98;87.47;101590.84;5063746;28;20131;-81
2022/07/03 04:36:09;;;;;;;18.30;7.63;;;;;;;14.01;87.24;101592.41;5065305;28;20036;-81
2022/07/03 04:38:35;;;;;;;16.30;6.55;;;;;;;14.07;86.65;101596.50;5069586;28;20067;-81
2022/07/03 04:41:00;;;;;;;19.45;7.97;;;;;;;14.14;86.37;101600.47;5072964;28;20431;-81
2022/07/03 04:43:25;;;;;;;17.65;7.20;;;;;;;14.20;86.98;101608.09;5069022;28;20020;-81
2022/07/03 04:45:50;;;;;;;19.60;7.20;;;;;;;14.24;85.45;101606.88;5067118;28;20039;-81
2022/07/03 04:48:16;;;;;;;15.88;6.68;;;;;;;14.28;86.56;101604.81;5071499;28;20020;-81
2022/07/03 04:50:41;;;;;;;18.65;6.90;;;;;;;14.31;85.08;101613.53;5077229;28;20263;-81
2022/07/03 04:53:06;;;;;;;17.85;7.25;;;;;;;14.36;85.05;101612.34;5076370;28;20029;-81
2022/07/03 04:55:31;;;;;;;16.40;7.05;;;;;;;14.40;85.23;101609.25;5073320;28;20502;-81
2022/07/03 04:57:57;;;;;;;19.48;6.88;;;;;;;14.45;85.65;101615.19;5071740;28;20032;-81
2022/07/03 05:00:22;;;;;;;19.52;7.53;;;;;;;14.45;85.04;101620.59;5083208;28;20445;-81
2022/07/03 05:02:47;;;;;;;22.42;6.80;;;;;;;14.49;84.54;101615.81;5079473;28;20031;-81
2022/07/03 05:05:13;;;;;;;17.65;7.35;;;;;;;14.53;85.18;101616.44;5074225;28;21166;-81
2022/07/03 05:07:38;;;;;;;18.77;7.55;;;;;;;14.56;85.21;101618.91;5071203;28;20088;-81
2022/07/03 05:10:04;;;;;;;16.92;7.13;;;;;;;14.56;84.80;101606.22;5068949;28;20028;-81
2022/07/03 05:12:29;;;;;;;16.85;6.57;;;;;;;14.60;85.38;101607.72;5070601;28;20552;-81
2022/07/03 05:14:54;;;;;;;17.38;6.88;;;;;;;14.62;84.25;101600.38;5070931;28;20032;-81
2022/07/03 05:17:20;;;;;;;17.52;6.72;;;;;;;14.66;84.87;101609.13;5068809;28;20033;-81
2022/07/03 05:19:45;;;;;;;15.13;6.15;;;;;;;14.67;83.87;101618.94;5071193;28;20020;-81
2022/07/03 05:22:11;;;;;;;14.52;6.15;;;;;;;14.67;84.44;101621.66;5068709;28;20032;-81
2022/07/03 05:24:36;;;;;;;15.60;6.72;;;;;;;14.66;85.55;101618.09;5077489;28;20025;-81
2022/07/03 05:27:01;;;;;;;16.40;5.63;;;;;;;14.66;84.72;101618.09;5071479;28;20043;-81
2022/07/03 05:29:27;;;;;;;17.85;6.55;;;;;;;14.69;85.42;101617.00;5071450;28;20029;-81
2022/07/03 05:31:52;;;;;;;18.63;7.13;;;;;;;14.72;84.88;101616.75;5064947;28;20117;-81
2022/07/03 05:34:17;;;;;;;16.85;6.63;;;;;;;14.76;85.20;101629.06;5066885;28;20032;-81
2022/07/03 05:36:42;;;;;;;15.00;6.20;;;;;;;14.79;83.76;101611.72;5078402;28;20421;-81
2022/07/03 05:41:52;;;;;;;18.23;7.13;;;;;;;14.91;84.95;101626.97;5071637;28;20063;-81
2022/07/03 05:44:17;;;;;;;17.45;6.15;;;;;;;14.95;83.91;101628.47;5069082;28;20458;-81
2022/07/03 05:46:42;;;;;;;18.10;6.57;;;;;;;14.99;83.94;101619.13;5070783;28;20533;-81
2022/07/03 05:49:08;;;;;;;17.30;6.57;;;;;;;15.05;83.23;101619.59;5071738;28;20028;-81
2022/07/03 05:51:33;;;;;;;16.45;6.63;;;;;;;15.12;83.63;101623.53;5070727;28;20111;-81
2022/07/03 05:53:58;;;;;;;15.43;6.18;;;;;;;15.18;83.05;101623.03;5066828;28;20035;-81
2022/07/03 05:56:24;;;;;;;16.70;5.97;;;;;;;15.28;84.32;101620.47;5071070;28;20481;-81
2022/07/03 05:58:50;;;;;;;17.02;5.45;;;;;;;15.32;82.25;101630.06;5065735;28;20476;-81
2022/07/03 06:01:15;;;;;;;17.13;6.00;;;;;;;15.39;82.49;101625.88;5069190;28;20024;-82
2022/07/03 06:03:40;;;;;;;17.33;6.82;;;;;;;15.46;82.43;101631.63;5073656;28;20039;-82
2022/07/03 06:06:06;;;;;;;16.52;6.13;;;;;;;15.52;81.86;101633.84;5071857;28;20040;-82
2022/07/03 06:08:31;;;;;;;18.92;6.53;;;;;;;15.60;81.75;101636.78;5069574;28;20024;-82
2022/07/03 06:10:56;;;;;;;19.60;6.78;;;;;;;15.65;81.26;101630.97;5073362;28;20128;-82
2022/07/03 06:13:21;;;;;;;18.58;6.45;;;;;;;15.72;81.18;101632.19;5068551;28;20032;-82
2022/07/03 06:15:47;;;;;;;23.02;6.82;;;;;;;15.79;80.91;101629.88;5072370;28;20165;-83
2022/07/03 06:18:12;;;;;;;17.83;6.40;;;;;;;15.84;80.63;101633.94;5067420;28;20111;-82
2022/07/03 06:20:37;;;;;;;19.55;6.13;;;;;;;15.89;80.86;101636.25;5072094;28;20032;-84
2022/07/03 06:23:03;;;;;;;16.90;6.15;;;;;;;15.93;80.94;101642.28;5070746;28;20036;-82
2022/07/03 06:25:28;;;;;;;17.15;5.88;;;;;;;15.96;80.63;101640.19;5065500;28;20039;-82
2022/07/03 06:27:53;;;;;;;18.58;5.47;;;;;;;16.02;81.69;101645.09;5066694;28;20025;-82
2022/07/03 06:30:19;;;;;;;18.02;5.13;;;;;;;16.10;81.93;101638.16;5072030;28;20087;-81
2022/07/03 06:32:44;;;;;;;18.38;6.18;;;;;;;16.17;81.40;101636.66;5069379;28;20032;-82
2022/07/03 06:35:10;;;;;;;16.25;5.03;;;;;;;16.20;81.68;101637.25;5075582;28;20157;-81
2022/07/03 06:37:35;;;;;;;14.95;5.50;;;;;;;16.24;81.14;101633.28;5070161;28;20032;-83
2022/07/03 06:40:00;;;;;;;13.57;5.05;;;;;;;16.29;80.83;101642.88;5065376;28;20480;-84
2022/07/03 06:42:25;;;;;;;17.95;5.35;;;;;;;16.35;81.57;101643.22;5076261;28;20094;-82
2022/07/03 06:44:51;;;;;;;14.85;5.28;;;;;;;16.39;80.45;101641.97;5078203;28;20688;-83
2022/07/03 06:47:16;;;;;;;12.10;4.55;;;;;;;16.43;80.45;101638.00;5072309;28;20025;-82
2022/07/03 06:49:43;;;;;;;15.57;5.75;;;;;;;16.47;79.94;101635.91;5069096;28;20051;-82
2022/07/03 06:52:08;;;;;;;17.33;5.38;;;;;;;16.53;79.34;101634.47;5070518;28;20070;-82
2022/07/03 06:54:33;;;;;;;16.27;5.13;;;;;;;16.58;79.97;101640.38;5067526;28;20028;-82
2022/07/03 06:56:59;;;;;;;15.10;5.40;;;;;;;16.63;80.11;101648.97;5085929;28;20456;-82
2022/07/03 06:59:24;;;;;;;20.38;6.28;;;;;;;16.66;79.33;101650.56;5085361;28;20410;-82
2022/07/03 07:01:49;;;;;;;15.45;5.32;;;;;;;16.69;79.63;101636.72;5068894;28;20032;-83
2022/07/03 07:04:15;;;;;;;17.13;5.18;;;;;;;16.69;79.02;101644.88;5070707;28;20039;-82
2022/07/03 07:06:40;;;;;;;16.90;5.63;;;;;;;16.72;79.84;101642.78;5077503;28;20464;-82
2022/07/03 07:09:05;;;;;;;16.20;5.47;;;;;;;16.75;78.44;101647.94;5075094;28;20020;-82
2022/07/03 07:11:31;;;;;;;18.17;5.97;;;;;;;16.82;79.52;101639.25;5065256;28;20071;-82
2022/07/03 07:13:56;;;;;;;18.45;6.32;;;;;;;16.86;78.22;101643.41;5060985;28;21054;-81
2022/07/03 07:16:21;;;;;;;19.77;6.03;;;;;;;16.94;79.41;101640.91;5059902;28;20039;-83
2022/07/03 07:18:47;;;;;;;15.70;5.50;;;;;;;16.98;78.42;101642.38;5063343;28;20052;-80
2022/07/03 07:21:12;;;;;;;14.88;5.03;;;;;;;17.04;79.50;101636.41;5064960;28;20710;-84
2022/07/03 07:23:37;;;;;;;14.27;5.28;;;;;;;17.07;78.32;101641.56;5063740;28;20372;-84
2022/07/03 07:26:03;;;;;;;16.05;5.22;;;;;;;17.12;78.26;101644.72;5064966;28;20043;-82
2022/07/03 07:28:30;;;;;;;14.90;4.75;;;;;;;17.16;76.48;101644.44;5066521;28;20125;-81
2022/07/03 07:30:57;;;;;;;16.50;5.57;;;;;;;17.23;78.54;101656.50;5062365;28;20032;-83
2022/07/03 07:33:23;;;;;;;15.48;5.18;;;;;;;17.23;77.39;101667.34;5062817;28;20639;-83
2022/07/03 07:35:48;;;;;;;16.35;5.35;;;;;;;17.25;77.98;101652.66;5064888;28;20103;-82
2022/07/03 07:38:14;;;;;;;14.80;4.47;;;;;;;17.28;78.03;101649.66;5065166;28;20081;-82
2022/07/03 07:40:39;;;;;;;15.30;4.60;;;;;;;17.28;75.87;101657.81;5062040;28;20031;-83
2022/07/03 07:43:05;;;;;;;12.80;4.32;;;;;;;17.32;76.54;101666.56;5067129;28;20445;-82
2022/07/03 07:45:30;;;;;;;12.15;4.15;;;;;;;17.35;77.23;101659.97;5068710;28;20024;-83
2022/07/03 07:47:56;;;;;;;17.42;5.38;;;;;;;17.38;76.81;101654.25;5065618;28;20036;-82
2022/07/03 07:50:21;;;;;;;14.90;4.90;;;;;;;17.42;77.00;101659.31;5066679;28;20029;-82
2022/07/03 07:52:47;;;;;;;9.23;3.85;;;;;;;17.48;77.63;101660.59;5057038;28;20453;-82
2022/07/03 07:55:12;;;;;;;15.75;5.53;;;;;;;17.53;77.62;101642.03;5067155;28;20044;-83
2022/07/03 07:57:39;;;;;;;16.95;5.82;;;;;;;17.59;77.15;101646.03;5066083;28;20043;-81
2022/07/03 08:00:10;;;;;;;14.90;5.20;;;;;;;17.67;78.34;101661.66;5066430;28;20036;-82
2022/07/03 08:05:38;;;;;;;17.60;5.20;;;;;;;17.80;77.09;101662.25;5069357;28;20097;-83
2022/07/03 08:08:14;;;;;;;17.20;5.90;;;;;;;17.89;77.39;101664.16;5068093;28;20101;-82
2022/07/03 08:10:48;;;;;;;17.40;5.47;;;;;;;17.94;74.84;101669.19;5068783;28;20098;-84
2022/07/03 08:13:16;;;;;;;17.25;5.13;;;;;;;17.96;75.56;101662.59;5067585;28;20043;-82
2022/07/03 08:15:42;;;;;;;16.55;5.60;;;;;;;18.07;74.99;101668.91;5074244;28;20051;-83
2022/07/03 08:18:08;;;;;;;14.98;5.30;;;;;;;18.16;75.35;101671.63;5065269;28;20032;-84
2022/07/03 08:20:34;;;;;;;20.45;7.43;;;;;;;18.17;73.39;101667.91;5068757;28;20032;-82
2022/07/03 08:23:00;;;;;;;16.15;5.93;;;;;;;18.24;74.39;101657.31;5072159;28;20036;-82
2022/07/03 08:25:25;;;;;;;14.70;5.43;;;;;;;18.27;74.89;101665.22;5065816;28;20031;-84
2022/07/03 08:27:51;;;;;;;17.75;6.53;;;;;;;18.29;73.75;101668.63;5070842;28;20028;-83
2022/07/03 08:30:17;;;;;;;16.42;5.80;;;;;;;18.33;75.53;101666.47;5068484;28;20353;-83
2022/07/03 08:32:47;;;;;;;16.63;5.38;;;;;;;18.39;76.85;101673.22;5067057;28;20513;-83
2022/07/03 08:35:13;;;;;;;18.70;7.28;;;;;;;18.42;75.29;101668.34;5071700;28;20036;-84
2022/07/03 08:37:40;;;;;;;17.58;6.70;;;;;;;18.44;75.34;101669.06;5068821;28;20063;-83
2022/07/03 08:40:07;;;;;;;14.48;4.70;;;;;;;18.46;72.39;101667.06;5069200;28;20038;-83
2022/07/03 08:42:33;;;;;;;16.30;4.78;;;;;;;18.51;73.79;101672.94;5063952;28;20073;-83
2022/07/03 08:45:01;;;;;;;13.15;4.13;;;;;;;18.58;73.34;101666.91;5065486;28;20036;-83
2022/07/03 08:47:26;;;;;;;14.90;4.65;;;;;;;18.56;71.67;101672.47;5086148;28;20126;-84
2022/07/03 08:49:54;;;;;;;14.13;4.30;;;;;;;18.59;72.14;101666.75;5076527;28;20119;-85
2022/07/03 08:52:24;;;;;;;15.02;5.15;;;;;;;18.62;71.60;101671.06;5071959;28;20042;-84
2022/07/03 08:54:50;;;;;;;;;;;;;;;18.65;73.20;101660.75;5084157;28;20114;-85
2022/07/03 08:57:16;;;;;;;11.07;3.85;;;;;;;18.65;70.60;101665.31;5073707;28;20041;-83
2022/07/03 08:59:48;;;;;;;13.63;4.70;;;;;;;18.69;71.36;101655.84;5067399;28;20028;-83
2022/07/03 09:02:14;;;;;;;15.88;4.68;;;;;;;18.68;69.65;101665.00;5070076;28;20035;-83
2022/07/03 09:04:42;;;;;;;15.43;5.03;;;;;;;18.72;70.64;101666.44;5077758;28;20028;-84
2022/07/03 09:07:08;;;;;;;12.97;5.03;;;;;;;18.74;69.52;101659.00;5073935;28;20025;-85
2022/07/03 09:09:33;;;;;;;12.23;4.20;;;;;;;18.80;71.34;101657.53;5067223;28;20024;-83
2022/07/03 09:11:59;;;;;;;15.68;4.85;;;;;;;18.89;72.23;101658.56;5074345;28;20189;-83
2022/07/03 09:14:24;;;;;;;16.13;4.70;;;;;;;18.92;71.23;101656.41;5076279;28;20460;-83
2022/07/03 09:16:50;;;;;;;10.80;4.43;;;;;;;18.98;71.26;101665.88;5077732;28;20059;-84
2022/07/03 09:19:39;;;;;;;15.32;5.28;;;;;;;19.01;70.12;101668.28;5069205;28;20032;-84
2022/07/03 09:22:16;;;;;;;14.80;5.50;;;;;;;19.00;68.24;101672.00;5090147;28;20020;-83
2022/07/03 09:24:41;;;;;;;12.70;4.93;;;;;;;19.06;68.52;101674.13;5080326;28;20104;-84
2022/07/03 09:27:15;;;;;;;13.48;5.35;;;;;;;19.08;67.53;101673.97;5067116;28;20029;-84
2022/07/03 09:30:00;;;;;;;14.27;5.57;;;;;;;19.16;70.21;101666.78;5071325;28;20068;-83
2022/07/03 09:32:36;;;;;;;15.65;5.88;;;;;;;19.23;69.32;101679.84;5076646;28;20051;-84
2022/07/03 09:35:17;;;;;;;17.58;7.28;;;;;;;19.30;69.83;101675.50;5079422;28;20032;-82
2022/07/03 09:37:52;;;;;;;16.00;6.00;;;;;;;19.35;69.59;101678.63;5081667;28;20032;-81
2022/07/03 09:40:19;;;;;;;19.63;7.57;;;;;;;19.42;69.96;101676.19;5075862;28;20087;-79
2022/07/03 09:42:59;;;;;;;13.90;6.25;;;;;;;19.47;71.74;101682.88;5068209;28;20115;-79
2022/07/03 09:45:25;;;;;;;14.95;6.18;;;;;;;19.44;69.81;101680.44;5071209;28;20036;-79
2022/07/03 09:47:50;;;;;;;15.10;6.20;;;;;;;19.41;68.69;101688.94;5067799;28;20016;-81
2022/07/03 09:50:15;;;;;;;16.02;6.28;;;;;;;19.37;68.65;101682.94;5071736;28;20027;-79
2022/07/03 09:52:45;;;;;;;17.38;6.93;;;;;;;19.37;68.16;101677.47;5070975;28;20097;-79
2022/07/03 09:55:10;;;;;;;15.60;6.80;;;;;;;19.38;68.62;101670.16;5080723;28;20483;-80
2022/07/03 09:57:44;;;;;;;15.02;6.07;;;;;;;19.38;68.60;101678.31;5068736;28;20063;-81
2022/07/03 10:00:21;;;;;;;16.42;6.40;;;;;;;19.44;68.01;101682.31;5068723;28;20077;-78
2022/07/03 10:03:05;;;;;;;14.20;6.15;;;;;;;19.50;69.14;101681.72;5068763;28;20028;-77
2022/07/03 10:05:39;;;;;;;16.05;7.22;;;;;;;19.50;67.22;101676.25;5078808;28;20120;-79
2022/07/03 10:08:12;;;;;;;14.35;6.75;;;;;;;19.48;67.17;101684.59;5061001;28;20086;-77
2022/07/03 10:10:40;;;;;;;14.85;6.63;;;;;;;19.47;68.34;101682.03;5075258;28;20079;-78
2022/07/03 10:13:06;;;;;;;14.40;6.20;;;;;;;19.48;68.99;101678.28;5083583;28;20453;-77
2022/07/03 10:15:37;;;;;;;14.55;6.00;;;;;;;19.45;66.22;101679.44;5070819;28;20039;-75
2022/07/03 10:18:07;;;;;;;15.18;6.80;;;;;;;19.42;66.74;101676.19;5066949;28;20047;-78
2022/07/03 10:20:39;;;;;;;12.50;5.93;;;;;;;19.47;68.37;101676.56;5064209;28;20047;-78
2022/07/03 10:23:05;;;;;;;12.18;5.95;;;;;;;19.54;69.61;101681.25;5070972;28;20037;-78
2022/07/03 10:25:31;;;;;;;13.70;6.20;;;;;;;19.58;67.80;101678.22;5061813;28;20031;-79
2022/07/03 10:27:56;;;;;;;14.93;6.00;;;;;;;19.60;68.37;101681.69;5073368;28;20044;-78
2022/07/03 10:30:23;;;;;;;12.15;5.40;;;;;;;19.66;69.70;101687.38;5062092;28;20500;-78
2022/07/03 10:32:53;;;;;;;14.75;5.68;;;;;;;19.72;66.76;101685.91;5077316;28;20021;-79
2022/07/03 10:35:21;;;;;;;13.20;4.95;;;;;;;19.79;66.83;101689.78;5071291;28;20118;-79
2022/07/03 10:38:03;;;;;;;10.95;4.47;;;;;;;19.88;67.66;101690.72;5074649;28;20043;-79
2022/07/03 10:46:24;;;;;;;17.13;5.43;;;;;;;19.95;62.67;101697.28;5073977;28;20397;-81
2022/07/03 10:49:05;;;;;;;12.27;4.88;;;;;;;19.95;65.03;101701.91;5071801;28;20024;-81
2022/07/03 10:51:41;;;;;;;16.55;5.75;;;;;;;19.96;63.80;101698.16;5085930;28;20431;-82
2022/07/03 10:54:17;;;;;;;11.43;4.70;;;;;;;20.05;64.78;101697.22;5071748;28;20480;-81
2022/07/03 10:56:57;;;;;;;12.43;5.28;;;;;;;20.14;64.02;101701.75;5073071;28;20036;-82
2022/07/03 10:59:44;;;;;;;10.70;4.82;;;;;;;20.14;62.09;101695.44;5062110;28;20029;-82
2022/07/03 11:02:31;;;;;;;12.70;5.82;;;;;;;20.10;61.62;101699.50;5067361;28;20673;-81
2022/07/03 11:05:00;;;;;;;15.93;5.40;;;;;;;20.02;61.55;101697.53;5077386;28;20148;-83
2022/07/03 11:07:30;;;;;;;15.98;6.00;;;;;;;20.04;63.50;101695.50;5070691;28;20025;-83
2022/07/03 11:10:10;;;;;;;15.63;5.85;;;;;;;20.13;62.94;101694.56;5064423;28;20036;-84
2022/07/03 11:12:57;;;;;;;13.75;5.55;;;;;;;20.27;62.51;101689.63;5070557;28;20468;-84
2022/07/03 11:15:27;;;;;;;15.18;6.10;;;;;;;20.34;60.24;101686.09;5078170;28;20032;-84
2022/07/03 11:18:16;;;;;;;17.52;6.15;;;;;;;20.46;63.26;101688.59;5076535;28;20027;-84
2022/07/03 11:20:41;;;;;;;16.70;6.65;;;;;;;20.45;61.08;101682.25;5074258;28;20016;-84
2022/07/03 11:23:09;;;;;;;16.45;6.90;;;;;;;20.43;59.94;101689.75;5086234;28;20035;-84
2022/07/03 11:25:42;;;;;;;16.00;6.47;;;;;;;20.42;61.79;101686.19;5081037;28;20032;-84
2022/07/03 11:28:27;;;;;;;14.38;5.72;;;;;;;20.39;60.82;101682.88;5072241;28;20028;-84
2022/07/03 11:31:08;;;;;;;12.13;5.45;;;;;;;20.37;61.82;101672.13;5090827;28;20024;-84
2022/07/03 11:33:44;;;;;;;15.23;5.57;;;;;;;20.41;61.52;101675.38;5082897;28;20106;-84
2022/07/03 11:36:15;;;;;;;16.17;7.18;;;;;;;20.46;63.05;101662.13;5084560;28;20095;-83
2022/07/03 11:38:43;;;;;;;18.98;8.40;;;;;;;20.41;62.64;101664.47;5082826;28;20468;-84
2022/07/03 11:41:10;;;;;;;20.70;9.60;;;;;;;20.35;62.54;101671.44;5074954;28;20024;-84